Nearby METAR Reports

 

EGKB - Biggin Hill, United Kingdom
Distance from station: S 5mi, 8km
Updated: 20/09/2014 08:50
Fog, Overcast
Fog, Overcast
 Wind from ENE
Wind: ENE 6 mph , 9 km/h
Temperature: 16°C
Dew Point: 15°C
Humidity: 94%
Barometer: 1015 hPa
Summary: Fog
Clouds: Overcast
Visibility: 0 mile , 0 km
Cloud details: Overcast 61 m
2014/09/20 07:50 EGKB 200750Z 07005KT 030V110 0450 R21/0500 FG OVC002 16/15 Q1015
EGLC - London City Airp, United Kingdom
Distance from station: NNE 8mi, 13km
Updated: 20/09/2014 08:50
Partly cloudy
Partly cloudy
 Wind from varies
Wind: varies 3 mph , 6 km/h
Temperature: 17°C
Dew Point: 16°C
Humidity: 94%
Barometer: 1015 hPa
Clouds: Partly cloudy
Visibility: 5 miles , 8 km
Cloud details: Few Clouds 122 m
Partly cloudy 213 m
2014/09/20 07:50 EGLC 200750Z VRB03KT 8000 FEW004 SCT007 17/16 Q1015 RERA
 
EGKK - London/Gatwick A, United Kingdom
Distance from station: SSW 19mi, 31km
Updated: 20/09/2014 08:50
Mostly cloudy
Mostly cloudy
 Wind from NE
Wind: NE 6 mph , 9 km/h
Temperature: 17°C
Dew Point: 17°C
Humidity: 100%
Barometer: 1015 hPa
Clouds: Mostly cloudy
Visibility: 4 miles , 6 km
Cloud details: Partly cloudy 152 m
Mostly cloudy 274 m
2014/09/20 07:50 EGKK 200750Z 04005KT 360V080 6000 SCT005 BKN009 17/17 Q1015
EGLL - London/Heathrow, United Kingdom
Distance from station: WNW 21mi, 33km
Updated: 20/09/2014 08:50
Mostly cloudy
Mostly cloudy
 Wind from NNE
Wind: NNE 5 mph , 7 km/h
Temperature: 17°C
Dew Point: 15°C
Humidity: 88%
Barometer: 1015 hPa
Clouds: Mostly cloudy
Visibility: 6 miles , 10 km
Cloud details: Mostly cloudy 152 m
2014/09/20 07:50 EGLL 200750Z 03004KT 360V060 9999 BKN005 17/15 Q1015